Hoogkamp, Netherlands
Current Conditions -  °F | °C
As of 12:55 AM on Tuesday 21 Oct 2014 (Local Time) from EHDL Reporting Station
Overcast Overcast  
Wind Chill: 55°   Ceiling: 5700
Heat Index: 55°   Visibility: 6mi
Dew Point: 52°   Wind: 10mph
Humidity: 88%   Direction: 220°SW
Pressure: 29.85"   Gusts: NA
Location:  52°N, 5.88°E
Report Text: EHDL 202255Z AUTO 22009KT 9999 OVC057 13/11 Q1011 BLU
Loading
Personal Weather Stations






























Interactive Weather Map
Tropical Storm Tracking
New forecast layout! Learn more

10-Day Weather Forecast

Advertisements
Track Severe Weather on mobile